sensor_id;sensor_type;location;lat;lon;timestamp;P1;durP1;ratioP1;P2;durP2;ratioP2
83487;SDS011;73424;49.994;8.184;2024-03-22T00:01:39;17.00;;;8.80;;
83487;SDS011;73424;49.994;8.184;2024-03-22T00:04:04;14.33;;;7.97;;
83487;SDS011;73424;49.994;8.184;2024-03-22T00:06:29;16.63;;;7.80;;
83487;SDS011;73424;49.994;8.184;2024-03-22T00:08:54;13.53;;;7.63;;
83487;SDS011;73424;49.994;8.184;2024-03-22T00:11:20;15.52;;;8.20;;
83487;SDS011;73424;49.994;8.184;2024-03-22T00:13:45;17.67;;;8.60;;
83487;SDS011;73424;49.994;8.184;2024-03-22T00:16:10;16.57;;;8.67;;
83487;SDS011;73424;49.994;8.184;2024-03-22T00:18:36;16.90;;;8.73;;
83487;SDS011;73424;49.994;8.184;2024-03-22T00:21:01;14.30;;;7.40;;
83487;SDS011;73424;49.994;8.184;2024-03-22T00:23:27;14.00;;;8.20;;
83487;SDS011;73424;49.994;8.184;2024-03-22T00:25:54;16.10;;;8.25;;
83487;SDS011;73424;49.994;8.184;2024-03-22T00:28:19;18.83;;;8.17;;
83487;SDS011;73424;49.994;8.184;2024-03-22T00:30:44;17.10;;;9.13;;
83487;SDS011;73424;49.994;8.184;2024-03-22T00:33:10;21.60;;;8.40;;
83487;SDS011;73424;49.994;8.184;2024-03-22T00:35:35;18.57;;;9.00;;
83487;SDS011;73424;49.994;8.184;2024-03-22T00:38:00;17.80;;;8.23;;
83487;SDS011;73424;49.994;8.184;2024-03-22T00:40:25;25.43;;;9.03;;
83487;SDS011;73424;49.994;8.184;2024-03-22T00:42:51;19.53;;;9.63;;
83487;SDS011;73424;49.994;8.184;2024-03-22T00:45:16;19.10;;;9.00;;
83487;SDS011;73424;49.994;8.184;2024-03-22T00:47:41;17.63;;;8.67;;
83487;SDS011;73424;49.994;8.184;2024-03-22T00:50:06;17.63;;;9.67;;
83487;SDS011;73424;49.994;8.184;2024-03-22T00:52:32;19.00;;;9.57;;
83487;SDS011;73424;49.994;8.184;2024-03-22T00:54:57;18.67;;;9.70;;
83487;SDS011;73424;49.994;8.184;2024-03-22T00:57:23;21.53;;;10.43;;
83487;SDS011;73424;49.994;8.184;2024-03-22T00:59:48;20.07;;;10.83;;
83487;SDS011;73424;49.994;8.184;2024-03-22T01:02:13;22.70;;;10.85;;
83487;SDS011;73424;49.994;8.184;2024-03-22T01:04:38;18.60;;;10.53;;
83487;SDS011;73424;49.994;8.184;2024-03-22T01:07:04;21.07;;;10.93;;
83487;SDS011;73424;49.994;8.184;2024-03-22T01:09:29;21.17;;;10.70;;
83487;SDS011;73424;49.994;8.184;2024-03-22T01:11:54;19.70;;;11.13;;
83487;SDS011;73424;49.994;8.184;2024-03-22T01:14:19;19.63;;;9.70;;
83487;SDS011;73424;49.994;8.184;2024-03-22T01:16:45;19.70;;;10.57;;
83487;SDS011;73424;49.994;8.184;2024-03-22T01:19:10;21.63;;;10.53;;
83487;SDS011;73424;49.994;8.184;2024-03-22T01:21:35;21.07;;;11.50;;
83487;SDS011;73424;49.994;8.184;2024-03-22T01:24:00;18.77;;;9.38;;
83487;SDS011;73424;49.994;8.184;2024-03-22T01:26:26;20.00;;;9.93;;
83487;SDS011;73424;49.994;8.184;2024-03-22T01:28:51;19.97;;;10.00;;
83487;SDS011;73424;49.994;8.184;2024-03-22T01:31:16;17.90;;;10.07;;
83487;SDS011;73424;49.994;8.184;2024-03-22T01:33:41;19.13;;;9.47;;
83487;SDS011;73424;49.994;8.184;2024-03-22T01:36:07;21.70;;;11.23;;
83487;SDS011;73424;49.994;8.184;2024-03-22T01:38:32;24.40;;;11.70;;
83487;SDS011;73424;49.994;8.184;2024-03-22T01:40:57;28.45;;;12.50;;
83487;SDS011;73424;49.994;8.184;2024-03-22T01:43:23;28.70;;;12.73;;
83487;SDS011;73424;49.994;8.184;2024-03-22T01:45:48;31.77;;;13.20;;
83487;SDS011;73424;49.994;8.184;2024-03-22T01:48:13;27.98;;;13.75;;
83487;SDS011;73424;49.994;8.184;2024-03-22T01:50:39;30.88;;;14.05;;
83487;SDS011;73424;49.994;8.184;2024-03-22T01:53:04;33.67;;;14.85;;
83487;SDS011;73424;49.994;8.184;2024-03-22T01:55:30;30.63;;;13.00;;
83487;SDS011;73424;49.994;8.184;2024-03-22T01:57:56;30.02;;;14.35;;
83487;SDS011;73424;49.994;8.184;2024-03-22T02:00:21;29.27;;;13.93;;
83487;SDS011;73424;49.994;8.184;2024-03-22T02:02:47;29.15;;;13.93;;
83487;SDS011;73424;49.994;8.184;2024-03-22T02:05:16;26.87;;;13.50;;
83487;SDS011;73424;49.994;8.184;2024-03-22T02:07:46;25.08;;;11.32;;
83487;SDS011;73424;49.994;8.184;2024-03-22T02:10:12;27.38;;;13.80;;
83487;SDS011;73424;49.994;8.184;2024-03-22T02:12:38;25.42;;;13.05;;
83487;SDS011;73424;49.994;8.184;2024-03-22T02:15:04;26.42;;;11.88;;
83487;SDS011;73424;49.994;8.184;2024-03-22T02:17:30;25.00;;;12.32;;
83487;SDS011;73424;49.994;8.184;2024-03-22T02:19:56;22.17;;;10.75;;
83487;SDS011;73424;49.994;8.184;2024-03-22T02:22:21;21.50;;;10.87;;
83487;SDS011;73424;49.994;8.184;2024-03-22T02:24:46;18.67;;;10.67;;
83487;SDS011;73424;49.994;8.184;2024-03-22T02:27:12;19.87;;;10.40;;
83487;SDS011;73424;49.994;8.184;2024-03-22T02:29:37;22.37;;;10.83;;
83487;SDS011;73424;49.994;8.184;2024-03-22T02:32:02;21.23;;;10.50;;
83487;SDS011;73424;49.994;8.184;2024-03-22T02:34:28;22.23;;;10.70;;
83487;SDS011;73424;49.994;8.184;2024-03-22T02:36:54;24.45;;;10.68;;
83487;SDS011;73424;49.994;8.184;2024-03-22T02:39:19;19.33;;;10.00;;
83487;SDS011;73424;49.994;8.184;2024-03-22T02:41:44;20.42;;;11.90;;
83487;SDS011;73424;49.994;8.184;2024-03-22T02:44:09;20.90;;;10.97;;
83487;SDS011;73424;49.994;8.184;2024-03-22T02:46:35;24.27;;;11.20;;
83487;SDS011;73424;49.994;8.184;2024-03-22T02:49:00;19.63;;;11.17;;
83487;SDS011;73424;49.994;8.184;2024-03-22T02:51:25;17.83;;;9.60;;
83487;SDS011;73424;49.994;8.184;2024-03-22T02:53:50;17.98;;;10.82;;
83487;SDS011;73424;49.994;8.184;2024-03-22T02:56:16;29.67;;;11.17;;
83487;SDS011;73424;49.994;8.184;2024-03-22T02:58:41;23.92;;;10.93;;
83487;SDS011;73424;49.994;8.184;2024-03-22T03:01:06;20.33;;;10.47;;
83487;SDS011;73424;49.994;8.184;2024-03-22T03:03:32;18.05;;;10.05;;
83487;SDS011;73424;49.994;8.184;2024-03-22T03:05:57;17.17;;;10.23;;
83487;SDS011;73424;49.994;8.184;2024-03-22T03:08:22;19.42;;;9.77;;
83487;SDS011;73424;49.994;8.184;2024-03-22T03:10:48;19.67;;;9.90;;
83487;SDS011;73424;49.994;8.184;2024-03-22T03:13:13;21.53;;;10.07;;
83487;SDS011;73424;49.994;8.184;2024-03-22T03:15:38;17.33;;;9.63;;
83487;SDS011;73424;49.994;8.184;2024-03-22T03:18:04;20.45;;;10.57;;
83487;SDS011;73424;49.994;8.184;2024-03-22T03:20:29;18.42;;;9.88;;
83487;SDS011;73424;49.994;8.184;2024-03-22T03:22:54;17.10;;;9.23;;
83487;SDS011;73424;49.994;8.184;2024-03-22T03:25:20;20.42;;;10.38;;
83487;SDS011;73424;49.994;8.184;2024-03-22T03:27:45;17.17;;;10.13;;
83487;SDS011;73424;49.994;8.184;2024-03-22T03:30:11;17.77;;;9.68;;
83487;SDS011;73424;49.994;8.184;2024-03-22T03:32:36;18.88;;;10.10;;
83487;SDS011;73424;49.994;8.184;2024-03-22T03:35:01;18.17;;;9.23;;
83487;SDS011;73424;49.994;8.184;2024-03-22T03:37:27;19.73;;;9.65;;
83487;SDS011;73424;49.994;8.184;2024-03-22T03:39:52;16.95;;;9.65;;
83487;SDS011;73424;49.994;8.184;2024-03-22T03:42:17;17.43;;;9.40;;
83487;SDS011;73424;49.994;8.184;2024-03-22T03:44:42;16.73;;;9.90;;
83487;SDS011;73424;49.994;8.184;2024-03-22T03:47:08;17.63;;;9.73;;
83487;SDS011;73424;49.994;8.184;2024-03-22T03:49:33;17.92;;;9.77;;
83487;SDS011;73424;49.994;8.184;2024-03-22T03:51:58;15.87;;;9.17;;
83487;SDS011;73424;49.994;8.184;2024-03-22T03:54:23;14.73;;;8.73;;
83487;SDS011;73424;49.994;8.184;2024-03-22T03:56:49;19.57;;;9.93;;
83487;SDS011;73424;49.994;8.184;2024-03-22T03:59:14;18.60;;;9.33;;
83487;SDS011;73424;49.994;8.184;2024-03-22T04:01:39;15.40;;;8.37;;
83487;SDS011;73424;49.994;8.184;2024-03-22T04:04:04;17.37;;;9.00;;
83487;SDS011;73424;49.994;8.184;2024-03-22T04:06:30;16.83;;;9.30;;
83487;SDS011;73424;49.994;8.184;2024-03-22T04:08:55;16.57;;;9.20;;
83487;SDS011;73424;49.994;8.184;2024-03-22T04:11:20;18.60;;;10.02;;
83487;SDS011;73424;49.994;8.184;2024-03-22T04:13:46;18.90;;;10.47;;
83487;SDS011;73424;49.994;8.184;2024-03-22T04:16:12;16.35;;;8.98;;
83487;SDS011;73424;49.994;8.184;2024-03-22T04:18:37;18.10;;;9.43;;
83487;SDS011;73424;49.994;8.184;2024-03-22T04:21:03;18.60;;;10.60;;
83487;SDS011;73424;49.994;8.184;2024-03-22T04:23:29;18.75;;;10.32;;
83487;SDS011;73424;49.994;8.184;2024-03-22T04:25:55;16.47;;;9.53;;
83487;SDS011;73424;49.994;8.184;2024-03-22T04:28:21;17.05;;;9.15;;
83487;SDS011;73424;49.994;8.184;2024-03-22T04:33:25;18.52;;;9.07;;
83487;SDS011;73424;49.994;8.184;2024-03-22T04:35:51;18.20;;;8.98;;
83487;SDS011;73424;49.994;8.184;2024-03-22T04:38:17;16.60;;;9.00;;
83487;SDS011;73424;49.994;8.184;2024-03-22T04:40:42;16.63;;;9.27;;
83487;SDS011;73424;49.994;8.184;2024-03-22T04:43:08;16.25;;;9.18;;
83487;SDS011;73424;49.994;8.184;2024-03-22T04:45:33;16.63;;;9.45;;
83487;SDS011;73424;49.994;8.184;2024-03-22T04:47:58;15.70;;;9.13;;
83487;SDS011;73424;49.994;8.184;2024-03-22T04:50:24;17.15;;;8.55;;
83487;SDS011;73424;49.994;8.184;2024-03-22T04:52:50;15.37;;;7.87;;
83487;SDS011;73424;49.994;8.184;2024-03-22T04:55:15;16.83;;;8.57;;
83487;SDS011;73424;49.994;8.184;2024-03-22T04:57:40;14.70;;;8.90;;
83487;SDS011;73424;49.994;8.184;2024-03-22T05:00:06;15.30;;;8.60;;
83487;SDS011;73424;49.994;8.184;2024-03-22T05:02:33;17.35;;;8.50;;
83487;SDS011;73424;49.994;8.184;2024-03-22T05:04:58;16.00;;;8.55;;
83487;SDS011;73424;49.994;8.184;2024-03-22T05:07:24;16.50;;;9.00;;
83487;SDS011;73424;49.994;8.184;2024-03-22T05:09:51;16.50;;;8.07;;
83487;SDS011;73424;49.994;8.184;2024-03-22T05:12:17;15.65;;;8.10;;
83487;SDS011;73424;49.994;8.184;2024-03-22T05:14:43;16.27;;;8.10;;
83487;SDS011;73424;49.994;8.184;2024-03-22T05:17:08;14.73;;;7.95;;
83487;SDS011;73424;49.994;8.184;2024-03-22T05:19:33;16.57;;;8.77;;
83487;SDS011;73424;49.994;8.184;2024-03-22T05:21:59;16.80;;;8.80;;
83487;SDS011;73424;49.994;8.184;2024-03-22T05:24:25;19.13;;;9.43;;
83487;SDS011;73424;49.994;8.184;2024-03-22T05:26:50;16.70;;;9.80;;
83487;SDS011;73424;49.994;8.184;2024-03-22T05:29:16;19.20;;;8.57;;
83487;SDS011;73424;49.994;8.184;2024-03-22T05:31:48;17.58;;;9.68;;
83487;SDS011;73424;49.994;8.184;2024-03-22T05:34:16;15.85;;;8.88;;
83487;SDS011;73424;49.994;8.184;2024-03-22T05:36:41;18.45;;;9.38;;
83487;SDS011;73424;49.994;8.184;2024-03-22T05:39:07;14.80;;;8.70;;
83487;SDS011;73424;49.994;8.184;2024-03-22T05:41:32;16.38;;;8.45;;
83487;SDS011;73424;49.994;8.184;2024-03-22T05:43:58;16.27;;;8.97;;
83487;SDS011;73424;49.994;8.184;2024-03-22T05:46:23;15.07;;;8.70;;
83487;SDS011;73424;49.994;8.184;2024-03-22T05:48:48;15.93;;;9.20;;
83487;SDS011;73424;49.994;8.184;2024-03-22T05:51:15;14.70;;;9.02;;
83487;SDS011;73424;49.994;8.184;2024-03-22T05:53:41;15.73;;;9.15;;
83487;SDS011;73424;49.994;8.184;2024-03-22T05:56:07;16.55;;;8.95;;
83487;SDS011;73424;49.994;8.184;2024-03-22T05:58:32;15.57;;;8.10;;
83487;SDS011;73424;49.994;8.184;2024-03-22T06:00:58;13.88;;;7.97;;
83487;SDS011;73424;49.994;8.184;2024-03-22T06:03:23;15.27;;;8.90;;
83487;SDS011;73424;49.994;8.184;2024-03-22T06:05:49;15.05;;;8.82;;
83487;SDS011;73424;49.994;8.184;2024-03-22T06:08:14;16.77;;;9.38;;
83487;SDS011;73424;49.994;8.184;2024-03-22T06:10:44;17.58;;;9.18;;
83487;SDS011;73424;49.994;8.184;2024-03-22T06:13:10;16.35;;;10.48;;
83487;SDS011;73424;49.994;8.184;2024-03-22T06:15:35;15.80;;;8.90;;
83487;SDS011;73424;49.994;8.184;2024-03-22T06:18:00;17.83;;;10.07;;
83487;SDS011;73424;49.994;8.184;2024-03-22T06:20:25;22.17;;;10.23;;
83487;SDS011;73424;49.994;8.184;2024-03-22T06:22:51;18.17;;;10.30;;
83487;SDS011;73424;49.994;8.184;2024-03-22T06:25:16;19.63;;;10.40;;
83487;SDS011;73424;49.994;8.184;2024-03-22T06:27:41;17.50;;;9.60;;
83487;SDS011;73424;49.994;8.184;2024-03-22T06:30:06;17.27;;;9.23;;
83487;SDS011;73424;49.994;8.184;2024-03-22T06:32:32;18.20;;;10.27;;
83487;SDS011;73424;49.994;8.184;2024-03-22T06:34:59;16.92;;;9.43;;
83487;SDS011;73424;49.994;8.184;2024-03-22T06:37:24;17.20;;;9.50;;
83487;SDS011;73424;49.994;8.184;2024-03-22T06:39:49;17.17;;;9.67;;
83487;SDS011;73424;49.994;8.184;2024-03-22T06:42:14;18.00;;;9.50;;
83487;SDS011;73424;49.994;8.184;2024-03-22T06:44:40;17.23;;;10.10;;
83487;SDS011;73424;49.994;8.184;2024-03-22T06:47:05;17.77;;;9.93;;
83487;SDS011;73424;49.994;8.184;2024-03-22T06:49:30;19.63;;;11.27;;
83487;SDS011;73424;49.994;8.184;2024-03-22T06:51:56;18.30;;;10.68;;
83487;SDS011;73424;49.994;8.184;2024-03-22T06:54:21;17.30;;;10.10;;
83487;SDS011;73424;49.994;8.184;2024-03-22T06:56:46;19.55;;;10.73;;
83487;SDS011;73424;49.994;8.184;2024-03-22T06:59:12;23.73;;;12.40;;
83487;SDS011;73424;49.994;8.184;2024-03-22T07:01:37;22.13;;;13.05;;
83487;SDS011;73424;49.994;8.184;2024-03-22T07:04:02;22.03;;;12.63;;
83487;SDS011;73424;49.994;8.184;2024-03-22T07:06:28;20.88;;;12.35;;
83487;SDS011;73424;49.994;8.184;2024-03-22T07:08:53;23.77;;;11.10;;
83487;SDS011;73424;49.994;8.184;2024-03-22T07:11:18;22.83;;;11.93;;
83487;SDS011;73424;49.994;8.184;2024-03-22T07:13:44;20.33;;;11.87;;
83487;SDS011;73424;49.994;8.184;2024-03-22T07:16:09;16.30;;;9.97;;
83487;SDS011;73424;49.994;8.184;2024-03-22T07:18:34;19.10;;;10.95;;
83487;SDS011;73424;49.994;8.184;2024-03-22T07:21:00;18.52;;;10.82;;
83487;SDS011;73424;49.994;8.184;2024-03-22T07:23:27;21.67;;;11.43;;
83487;SDS011;73424;49.994;8.184;2024-03-22T07:25:52;19.27;;;11.13;;
83487;SDS011;73424;49.994;8.184;2024-03-22T07:28:18;20.30;;;11.57;;
83487;SDS011;73424;49.994;8.184;2024-03-22T07:30:43;16.95;;;8.93;;
83487;SDS011;73424;49.994;8.184;2024-03-22T07:33:10;19.20;;;9.53;;
83487;SDS011;73424;49.994;8.184;2024-03-22T07:35:38;15.18;;;9.00;;
83487;SDS011;73424;49.994;8.184;2024-03-22T07:38:03;15.27;;;8.85;;
83487;SDS011;73424;49.994;8.184;2024-03-22T07:40:29;17.23;;;9.40;;
83487;SDS011;73424;49.994;8.184;2024-03-22T07:42:54;14.05;;;7.70;;
83487;SDS011;73424;49.994;8.184;2024-03-22T07:45:19;13.70;;;9.50;;
83487;SDS011;73424;49.994;8.184;2024-03-22T07:47:45;17.65;;;8.48;;
83487;SDS011;73424;49.994;8.184;2024-03-22T07:50:10;13.93;;;8.77;;
83487;SDS011;73424;49.994;8.184;2024-03-22T07:52:35;13.40;;;7.83;;
83487;SDS011;73424;49.994;8.184;2024-03-22T07:55:01;13.60;;;7.88;;
83487;SDS011;73424;49.994;8.184;2024-03-22T07:57:28;15.38;;;7.75;;
83487;SDS011;73424;49.994;8.184;2024-03-22T07:59:55;13.10;;;7.38;;
83487;SDS011;73424;49.994;8.184;2024-03-22T08:02:21;14.10;;;7.70;;
83487;SDS011;73424;49.994;8.184;2024-03-22T08:04:46;14.43;;;8.05;;
83487;SDS011;73424;49.994;8.184;2024-03-22T08:07:12;12.87;;;7.20;;
83487;SDS011;73424;49.994;8.184;2024-03-22T08:09:40;15.27;;;8.80;;
83487;SDS011;73424;49.994;8.184;2024-03-22T08:12:05;17.60;;;10.02;;
83487;SDS011;73424;49.994;8.184;2024-03-22T08:14:31;15.13;;;9.38;;
83487;SDS011;73424;49.994;8.184;2024-03-22T08:16:56;15.63;;;8.57;;
83487;SDS011;73424;49.994;8.184;2024-03-22T08:19:22;18.25;;;9.52;;
83487;SDS011;73424;49.994;8.184;2024-03-22T08:21:47;16.35;;;9.63;;
83487;SDS011;73424;49.994;8.184;2024-03-22T08:24:13;16.38;;;9.15;;
83487;SDS011;73424;49.994;8.184;2024-03-22T08:26:38;15.82;;;8.93;;
83487;SDS011;73424;49.994;8.184;2024-03-22T08:29:04;14.82;;;8.80;;
83487;SDS011;73424;49.994;8.184;2024-03-22T08:31:30;14.98;;;9.52;;
83487;SDS011;73424;49.994;8.184;2024-03-22T08:33:55;14.15;;;8.80;;
83487;SDS011;73424;49.994;8.184;2024-03-22T08:36:23;15.27;;;8.65;;
83487;SDS011;73424;49.994;8.184;2024-03-22T08:38:51;17.30;;;9.50;;
83487;SDS011;73424;49.994;8.184;2024-03-22T08:41:17;13.90;;;7.78;;
83487;SDS011;73424;49.994;8.184;2024-03-22T08:43:42;13.75;;;8.35;;
83487;SDS011;73424;49.994;8.184;2024-03-22T08:46:07;14.27;;;8.30;;
83487;SDS011;73424;49.994;8.184;2024-03-22T08:48:32;14.40;;;8.23;;
83487;SDS011;73424;49.994;8.184;2024-03-22T08:50:58;17.48;;;8.90;;
83487;SDS011;73424;49.994;8.184;2024-03-22T08:53:23;16.63;;;8.77;;
83487;SDS011;73424;49.994;8.184;2024-03-22T08:55:53;13.80;;;8.27;;
83487;SDS011;73424;49.994;8.184;2024-03-22T08:58:18;11.85;;;7.47;;
83487;SDS011;73424;49.994;8.184;2024-03-22T09:00:46;13.03;;;8.10;;
83487;SDS011;73424;49.994;8.184;2024-03-22T09:03:11;12.52;;;8.10;;
83487;SDS011;73424;49.994;8.184;2024-03-22T09:05:37;13.70;;;8.35;;
83487;SDS011;73424;49.994;8.184;2024-03-22T09:08:02;13.00;;;8.10;;
83487;SDS011;73424;49.994;8.184;2024-03-22T09:10:28;11.65;;;7.47;;
83487;SDS011;73424;49.994;8.184;2024-03-22T09:12:54;11.45;;;7.28;;
83487;SDS011;73424;49.994;8.184;2024-03-22T09:15:20;12.75;;;7.63;;
83487;SDS011;73424;49.994;8.184;2024-03-22T09:17:46;13.90;;;7.32;;
83487;SDS011;73424;49.994;8.184;2024-03-22T09:20:11;12.93;;;7.22;;
83487;SDS011;73424;49.994;8.184;2024-03-22T09:22:37;11.70;;;6.90;;
83487;SDS011;73424;49.994;8.184;2024-03-22T09:25:04;11.48;;;6.80;;
83487;SDS011;73424;49.994;8.184;2024-03-22T09:27:30;10.95;;;6.05;;
83487;SDS011;73424;49.994;8.184;2024-03-22T09:29:55;5.30;;;3.20;;
83487;SDS011;73424;49.994;8.184;2024-03-22T09:32:20;6.00;;;2.88;;
83487;SDS011;73424;49.994;8.184;2024-03-22T09:34:48;6.05;;;2.83;;
83487;SDS011;73424;49.994;8.184;2024-03-22T09:37:14;5.07;;;3.13;;
83487;SDS011;73424;49.994;8.184;2024-03-22T09:39:40;4.80;;;2.70;;
83487;SDS011;73424;49.994;8.184;2024-03-22T09:42:05;4.60;;;2.40;;
83487;SDS011;73424;49.994;8.184;2024-03-22T09:44:32;4.97;;;3.05;;
83487;SDS011;73424;49.994;8.184;2024-03-22T09:46:57;6.38;;;3.25;;
83487;SDS011;73424;49.994;8.184;2024-03-22T09:49:24;7.85;;;3.08;;
83487;SDS011;73424;49.994;8.184;2024-03-22T09:51:50;6.05;;;3.55;;
83487;SDS011;73424;49.994;8.184;2024-03-22T09:54:16;6.55;;;3.00;;
83487;SDS011;73424;49.994;8.184;2024-03-22T09:56:42;5.80;;;3.13;;
83487;SDS011;73424;49.994;8.184;2024-03-22T09:59:08;5.97;;;2.60;;
83487;SDS011;73424;49.994;8.184;2024-03-22T10:01:35;5.57;;;3.22;;
83487;SDS011;73424;49.994;8.184;2024-03-22T10:04:01;6.00;;;2.58;;
83487;SDS011;73424;49.994;8.184;2024-03-22T10:06:27;5.45;;;2.58;;
83487;SDS011;73424;49.994;8.184;2024-03-22T10:16:20;5.20;;;3.00;;
83487;SDS011;73424;49.994;8.184;2024-03-22T10:18:51;5.50;;;2.80;;
83487;SDS011;73424;49.994;8.184;2024-03-22T10:21:23;5.28;;;2.95;;
83487;SDS011;73424;49.994;8.184;2024-03-22T10:23:56;4.78;;;2.80;;
83487;SDS011;73424;49.994;8.184;2024-03-22T10:26:24;6.38;;;3.78;;
83487;SDS011;73424;49.994;8.184;2024-03-22T10:28:57;5.38;;;2.33;;
83487;SDS011;73424;49.994;8.184;2024-03-22T10:31:23;5.20;;;2.58;;
83487;SDS011;73424;49.994;8.184;2024-03-22T10:33:52;4.20;;;2.83;;
83487;SDS011;73424;49.994;8.184;2024-03-22T10:36:22;6.95;;;2.95;;
83487;SDS011;73424;49.994;8.184;2024-03-22T10:38:48;5.07;;;2.70;;
83487;SDS011;73424;49.994;8.184;2024-03-22T10:41:16;4.78;;;3.13;;
83487;SDS011;73424;49.994;8.184;2024-03-22T10:43:42;5.38;;;2.95;;
83487;SDS011;73424;49.994;8.184;2024-03-22T10:46:07;5.60;;;2.65;;
83487;SDS011;73424;49.994;8.184;2024-03-22T10:48:34;5.18;;;2.97;;
83487;SDS011;73424;49.994;8.184;2024-03-22T10:51:01;7.00;;;3.38;;
83487;SDS011;73424;49.994;8.184;2024-03-22T10:53:27;6.18;;;3.20;;
83487;SDS011;73424;49.994;8.184;2024-03-22T10:55:56;6.22;;;3.45;;
83487;SDS011;73424;49.994;8.184;2024-03-22T10:58:25;6.80;;;3.53;;
83487;SDS011;73424;49.994;8.184;2024-03-22T11:00:54;7.43;;;3.47;;
83487;SDS011;73424;49.994;8.184;2024-03-22T11:03:21;6.22;;;3.55;;
83487;SDS011;73424;49.994;8.184;2024-03-22T11:05:53;6.97;;;4.10;;
83487;SDS011;73424;49.994;8.184;2024-03-22T11:10:49;6.43;;;4.25;;
83487;SDS011;73424;49.994;8.184;2024-03-22T11:13:15;7.97;;;4.07;;
83487;SDS011;73424;49.994;8.184;2024-03-22T11:15:42;7.65;;;4.10;;
83487;SDS011;73424;49.994;8.184;2024-03-22T11:18:07;8.70;;;3.90;;
83487;SDS011;73424;49.994;8.184;2024-03-22T11:20:32;8.60;;;4.77;;
83487;SDS011;73424;49.994;8.184;2024-03-22T11:23:01;7.57;;;5.43;;
83487;SDS011;73424;49.994;8.184;2024-03-22T11:25:26;8.93;;;5.75;;
83487;SDS011;73424;49.994;8.184;2024-03-22T11:27:52;8.23;;;4.75;;
83487;SDS011;73424;49.994;8.184;2024-03-22T11:30:19;13.52;;;8.38;;
83487;SDS011;73424;49.994;8.184;2024-03-22T11:32:44;9.55;;;5.45;;
83487;SDS011;73424;49.994;8.184;2024-03-22T11:35:13;7.65;;;5.43;;
83487;SDS011;73424;49.994;8.184;2024-03-22T11:37:41;9.57;;;6.15;;
83487;SDS011;73424;49.994;8.184;2024-03-22T11:40:10;9.20;;;5.55;;
83487;SDS011;73424;49.994;8.184;2024-03-22T11:42:40;8.05;;;5.60;;
83487;SDS011;73424;49.994;8.184;2024-03-22T11:45:07;8.60;;;5.60;;
83487;SDS011;73424;49.994;8.184;2024-03-22T11:47:34;8.90;;;5.40;;
83487;SDS011;73424;49.994;8.184;2024-03-22T11:50:00;9.30;;;5.75;;
83487;SDS011;73424;49.994;8.184;2024-03-22T11:52:26;7.93;;;5.75;;
83487;SDS011;73424;49.994;8.184;2024-03-22T11:54:51;13.02;;;6.15;;
83487;SDS011;73424;49.994;8.184;2024-03-22T11:57:18;9.68;;;5.97;;
83487;SDS011;73424;49.994;8.184;2024-03-22T11:59:46;9.18;;;5.05;;
83487;SDS011;73424;49.994;8.184;2024-03-22T12:02:11;9.50;;;5.63;;
83487;SDS011;73424;49.994;8.184;2024-03-22T12:04:56;8.90;;;5.97;;
83487;SDS011;73424;49.994;8.184;2024-03-22T12:07:21;8.65;;;5.22;;
83487;SDS011;73424;49.994;8.184;2024-03-22T12:09:46;10.27;;;5.63;;
83487;SDS011;73424;49.994;8.184;2024-03-22T12:12:12;9.25;;;5.93;;
83487;SDS011;73424;49.994;8.184;2024-03-22T12:14:38;11.18;;;6.13;;
83487;SDS011;73424;49.994;8.184;2024-03-22T12:17:05;9.10;;;5.80;;
83487;SDS011;73424;49.994;8.184;2024-03-22T12:19:30;11.43;;;5.88;;
83487;SDS011;73424;49.994;8.184;2024-03-22T12:21:56;9.18;;;5.93;;
83487;SDS011;73424;49.994;8.184;2024-03-22T12:24:22;10.80;;;6.68;;
83487;SDS011;73424;49.994;8.184;2024-03-22T12:26:48;9.55;;;6.30;;
83487;SDS011;73424;49.994;8.184;2024-03-22T12:29:17;12.90;;;6.40;;
83487;SDS011;73424;49.994;8.184;2024-03-22T12:31:43;11.85;;;6.00;;
83487;SDS011;73424;49.994;8.184;2024-03-22T12:34:08;10.53;;;6.17;;
83487;SDS011;73424;49.994;8.184;2024-03-22T12:36:34;11.93;;;5.82;;
83487;SDS011;73424;49.994;8.184;2024-03-22T12:38:59;10.97;;;6.37;;
83487;SDS011;73424;49.994;8.184;2024-03-22T12:41:24;9.27;;;5.70;;
83487;SDS011;73424;49.994;8.184;2024-03-22T12:43:50;10.13;;;5.53;;
83487;SDS011;73424;49.994;8.184;2024-03-22T12:46:15;8.98;;;4.97;;
83487;SDS011;73424;49.994;8.184;2024-03-22T12:48:41;12.32;;;7.38;;
83487;SDS011;73424;49.994;8.184;2024-03-22T12:51:06;10.90;;;6.23;;
83487;SDS011;73424;49.994;8.184;2024-03-22T12:53:32;9.95;;;6.28;;
83487;SDS011;73424;49.994;8.184;2024-03-22T12:55:57;10.13;;;5.83;;
83487;SDS011;73424;49.994;8.184;2024-03-22T12:58:22;8.60;;;5.73;;
83487;SDS011;73424;49.994;8.184;2024-03-22T13:00:47;11.20;;;6.93;;
83487;SDS011;73424;49.994;8.184;2024-03-22T13:03:13;11.45;;;6.93;;
83487;SDS011;73424;49.994;8.184;2024-03-22T13:05:40;10.00;;;5.95;;
83487;SDS011;73424;49.994;8.184;2024-03-22T13:08:06;11.27;;;6.72;;
83487;SDS011;73424;49.994;8.184;2024-03-22T13:10:32;13.00;;;7.68;;
83487;SDS011;73424;49.994;8.184;2024-03-22T13:12:57;11.25;;;7.22;;
83487;SDS011;73424;49.994;8.184;2024-03-22T13:15:22;13.05;;;7.43;;
83487;SDS011;73424;49.994;8.184;2024-03-22T13:17:48;11.95;;;7.15;;
83487;SDS011;73424;49.994;8.184;2024-03-22T13:20:13;11.53;;;7.23;;
83487;SDS011;73424;49.994;8.184;2024-03-22T13:22:40;10.82;;;7.15;;
83487;SDS011;73424;49.994;8.184;2024-03-22T13:25:06;11.38;;;7.22;;
83487;SDS011;73424;49.994;8.184;2024-03-22T13:27:34;15.93;;;7.60;;
83487;SDS011;73424;49.994;8.184;2024-03-22T13:29:59;9.88;;;6.88;;
83487;SDS011;73424;49.994;8.184;2024-03-22T13:32:28;12.52;;;7.20;;
83487;SDS011;73424;49.994;8.184;2024-03-22T13:34:53;12.07;;;6.77;;
83487;SDS011;73424;49.994;8.184;2024-03-22T13:37:18;10.23;;;6.60;;
83487;SDS011;73424;49.994;8.184;2024-03-22T13:39:47;12.90;;;7.13;;
83487;SDS011;73424;49.994;8.184;2024-03-22T13:42:16;11.80;;;7.57;;
83487;SDS011;73424;49.994;8.184;2024-03-22T13:44:41;11.20;;;7.57;;
83487;SDS011;73424;49.994;8.184;2024-03-22T13:47:07;11.88;;;7.50;;
83487;SDS011;73424;49.994;8.184;2024-03-22T13:49:33;15.00;;;8.10;;
83487;SDS011;73424;49.994;8.184;2024-03-22T13:51:58;13.68;;;7.97;;
83487;SDS011;73424;49.994;8.184;2024-03-22T13:54:24;11.10;;;7.43;;
83487;SDS011;73424;49.994;8.184;2024-03-22T13:56:50;13.98;;;8.20;;
83487;SDS011;73424;49.994;8.184;2024-03-22T13:59:15;13.82;;;8.38;;
83487;SDS011;73424;49.994;8.184;2024-03-22T14:01:41;14.05;;;8.57;;
83487;SDS011;73424;49.994;8.184;2024-03-22T14:04:10;16.08;;;7.88;;
83487;SDS011;73424;49.994;8.184;2024-03-22T14:06:36;9.65;;;7.30;;
83487;SDS011;73424;49.994;8.184;2024-03-22T14:09:02;11.80;;;8.10;;
83487;SDS011;73424;49.994;8.184;2024-03-22T14:11:29;13.13;;;7.70;;
83487;SDS011;73424;49.994;8.184;2024-03-22T14:13:55;13.25;;;7.72;;
83487;SDS011;73424;49.994;8.184;2024-03-22T14:16:24;12.80;;;7.80;;
83487;SDS011;73424;49.994;8.184;2024-03-22T14:18:49;13.95;;;8.35;;
83487;SDS011;73424;49.994;8.184;2024-03-22T14:21:15;13.48;;;8.18;;
83487;SDS011;73424;49.994;8.184;2024-03-22T14:26:13;15.40;;;8.13;;
83487;SDS011;73424;49.994;8.184;2024-03-22T14:28:39;12.35;;;7.93;;
83487;SDS011;73424;49.994;8.184;2024-03-22T14:31:05;11.95;;;8.52;;
83487;SDS011;73424;49.994;8.184;2024-03-22T14:33:33;15.07;;;8.50;;
83487;SDS011;73424;49.994;8.184;2024-03-22T14:36:06;13.05;;;7.97;;
83487;SDS011;73424;49.994;8.184;2024-03-22T14:38:32;13.82;;;8.00;;
83487;SDS011;73424;49.994;8.184;2024-03-22T14:40:58;12.38;;;8.60;;